createdAt,value
2022-07-27T00:01:17.635Z,98246.88
2022-07-27T00:06:19.619Z,98254.31
2022-07-27T00:11:21.628Z,98260.59
2022-07-27T00:16:23.685Z,98255.75
2022-07-27T00:21:26.849Z,98253.66
2022-07-27T00:26:28.811Z,98262.91
2022-07-27T00:31:30.966Z,98266.25
2022-07-27T00:36:32.955Z,98270.13
2022-07-27T00:41:34.880Z,98279.03
2022-07-27T00:46:37.091Z,98278.84
2022-07-27T00:51:39.121Z,98271.28
2022-07-27T00:56:41.856Z,98277.84
2022-07-27T01:01:43.982Z,98268.88
2022-07-27T01:06:46.050Z,98282.16
2022-07-27T01:11:48.694Z,98280.06
2022-07-27T01:16:52.002Z,98274.97
2022-07-27T01:21:53.875Z,98274.69
2022-07-27T01:26:56.266Z,98278.69
2022-07-27T01:31:58.812Z,98267.78
2022-07-27T01:37:05.205Z,98274.06
2022-07-27T01:42:07.301Z,98283.47
2022-07-27T01:47:14.176Z,98286.00
2022-07-27T01:52:16.684Z,98285.66
2022-07-27T01:57:18.606Z,98281.81
2022-07-27T02:02:20.583Z,98283.28
2022-07-27T02:07:22.534Z,98282.41
2022-07-27T02:12:36.734Z,98277.88
2022-07-27T02:17:40.330Z,98275.09
2022-07-27T02:22:44.709Z,98269.47
2022-07-27T02:27:47.585Z,98267.31
2022-07-27T02:32:49.521Z,98276.00
2022-07-27T02:37:51.482Z,98277.00
2022-07-27T02:42:53.497Z,98283.59
2022-07-27T02:47:55.675Z,98281.31
2022-07-27T02:52:57.557Z,98284.38
2022-07-27T02:57:59.445Z,98276.06
2022-07-27T03:03:01.421Z,98275.44
2022-07-27T03:08:04.223Z,98263.06
2022-07-27T03:13:06.293Z,98261.44
2022-07-27T03:18:08.181Z,98264.84
2022-07-27T03:23:10.090Z,98277.06
2022-07-27T03:28:12.061Z,98280.97
2022-07-27T03:33:14.010Z,98266.38
2022-07-27T03:38:16.106Z,98272.34
2022-07-27T03:43:19.440Z,98263.28
2022-07-27T03:48:21.595Z,98270.91
2022-07-27T03:53:23.549Z,98278.91
2022-07-27T03:58:25.714Z,98282.88
2022-07-27T04:03:27.606Z,98286.69
2022-07-27T04:08:29.589Z,98297.38
2022-07-27T04:13:31.486Z,98301.38
2022-07-27T04:18:33.498Z,98301.78
2022-07-27T04:23:38.352Z,98305.84
2022-07-27T04:28:40.480Z,98309.41
2022-07-27T04:33:42.442Z,98314.31
2022-07-27T04:38:44.492Z,98318.91
2022-07-27T04:43:46.431Z,98325.78
2022-07-27T04:48:49.099Z,98332.84
2022-07-27T04:53:52.783Z,98336.84
2022-07-27T04:59:00.537Z,98335.41
2022-07-27T05:04:04.220Z,98333.03
2022-07-27T05:09:06.245Z,98347.59
2022-07-27T05:14:08.448Z,98352.75
2022-07-27T05:19:10.535Z,98354.25
2022-07-27T05:24:12.611Z,98366.38
2022-07-27T05:29:15.080Z,98363.59
2022-07-27T05:34:17.316Z,98372.28
2022-07-27T05:39:19.446Z,98376.66
2022-07-27T05:44:21.470Z,98370.88
2022-07-27T05:49:23.799Z,98364.59
2022-07-27T05:54:25.783Z,98361.69
2022-07-27T05:59:28.269Z,98382.84
2022-07-27T06:04:30.218Z,98392.56
2022-07-27T06:09:32.126Z,98391.25
2022-07-27T06:14:34.082Z,98400.41
2022-07-27T06:19:39.656Z,98411.84
2022-07-27T06:24:41.614Z,98424.13
2022-07-27T06:29:43.657Z,98416.69
2022-07-27T06:34:45.638Z,98420.94
2022-07-27T06:39:49.141Z,98424.50
2022-07-27T06:44:51.140Z,98427.25
2022-07-27T06:49:53.420Z,98427.16
2022-07-27T06:54:55.320Z,98414.44
2022-07-27T06:59:57.295Z,98408.91
2022-07-27T07:04:59.314Z,98408.13
2022-07-27T07:10:01.192Z,98416.75
2022-07-27T07:15:03.581Z,98420.66
2022-07-27T07:20:07.133Z,98417.88
2022-07-27T07:25:09.449Z,98419.03
2022-07-27T07:30:12.148Z,98415.88
2022-07-27T07:35:14.783Z,98416.97
2022-07-27T07:40:46.902Z,98416.13
2022-07-27T07:45:50.544Z,98428.28
2022-07-27T07:50:54.218Z,98432.19
2022-07-27T07:56:00.113Z,98436.75
2022-07-27T08:01:02.004Z,98434.69
2022-07-27T08:06:04.306Z,98438.88
2022-07-27T08:11:06.152Z,98436.06
2022-07-27T08:16:08.183Z,98444.56
2022-07-27T08:21:10.121Z,98444.56
2022-07-27T08:26:11.948Z,98453.56
2022-07-27T08:31:18.889Z,98454.28
2022-07-27T08:36:26.214Z,98449.69
2022-07-27T08:41:30.350Z,98438.53
2022-07-27T08:46:33.098Z,98439.94
2022-07-27T08:51:35.283Z,98449.63
2022-07-27T08:56:37.590Z,98449.38
2022-07-27T09:01:41.074Z,98443.28
2022-07-27T09:06:52.857Z,98435.31
2022-07-27T09:12:09.879Z,98446.16
2022-07-27T09:22:52.710Z,98448.63
2022-07-27T09:27:56.860Z,98459.44
2022-07-27T09:33:00.186Z,98457.13
2022-07-27T09:38:24.879Z,98454.13
2022-07-27T09:44:27.549Z,98460.25
2022-07-27T09:48:49.087Z,98457.78
2022-07-27T09:53:52.729Z,98449.47
2022-07-27T09:58:56.935Z,98449.81
2022-07-27T10:04:04.507Z,98452.81
2022-07-27T10:14:08.056Z,98461.88
2022-07-27T10:19:18.187Z,98452.50
2022-07-27T10:24:33.846Z,98456.16
2022-07-27T10:29:38.762Z,98465.78
2022-07-27T10:34:42.623Z,98465.28
2022-07-27T10:39:49.995Z,98457.72
2022-07-27T10:45:01.942Z,98456.16
2022-07-27T10:50:15.500Z,98456.00
2022-07-27T10:55:40.115Z,98452.47
2022-07-27T11:00:55.115Z,98447.38
2022-07-27T11:06:31.387Z,98451.03
2022-07-27T11:11:30.264Z,98448.34
2022-07-27T11:16:32.320Z,98455.25
2022-07-27T11:21:38.820Z,98446.47
2022-07-27T11:26:44.151Z,98435.41
2022-07-27T11:31:57.559Z,98439.38
2022-07-27T11:37:05.607Z,98439.81
2022-07-27T11:42:11.926Z,98442.31
2022-07-27T11:47:19.527Z,98429.38
2022-07-27T11:52:21.478Z,98447.38
2022-07-27T11:57:32.123Z,98433.72
2022-07-27T12:02:34.131Z,98435.16
2022-07-27T12:07:37.053Z,98435.97
2022-07-27T12:12:48.513Z,98432.50
2022-07-27T12:17:59.685Z,98415.72
2022-07-27T12:23:07.221Z,98416.09
2022-07-27T12:28:15.244Z,98404.41
2022-07-27T12:33:30.274Z,98407.78
2022-07-27T12:38:48.690Z,98403.38
2022-07-27T12:44:13.676Z,98398.75
2022-07-27T12:49:16.279Z,98394.56
2022-07-27T12:54:18.553Z,98387.13
2022-07-27T12:59:22.093Z,98384.25
2022-07-27T13:04:24.250Z,98383.97
2022-07-27T13:09:26.124Z,98366.06
2022-07-27T13:14:48.470Z,98370.25
2022-07-27T13:19:50.760Z,98371.75
2022-07-27T13:24:52.681Z,98375.56
2022-07-27T13:29:56.036Z,98375.41
2022-07-27T13:34:57.929Z,98385.63
2022-07-27T13:40:01.095Z,98384.16
2022-07-27T13:45:11.293Z,98382.97
2022-07-27T13:50:19.473Z,98390.22
2022-07-27T13:55:27.772Z,98391.84
2022-07-27T14:00:30.157Z,98388.78
2022-07-27T14:05:32.153Z,98397.09
2022-07-27T14:10:44.473Z,98389.56
2022-07-27T14:15:53.306Z,98379.25
2022-07-27T14:20:58.959Z,98386.03
2022-07-27T14:26:06.565Z,98362.88
2022-07-27T14:31:09.927Z,98376.56
2022-07-27T14:36:11.801Z,98379.50
2022-07-27T14:41:13.741Z,98378.59
2022-07-27T14:46:15.727Z,98391.16
2022-07-27T14:51:17.794Z,98390.03
2022-07-27T14:56:19.645Z,98377.81
2022-07-27T15:01:21.861Z,98379.66
2022-07-27T15:06:24.102Z,98371.50
2022-07-27T15:11:27.578Z,98364.88
2022-07-27T15:16:31.184Z,98377.22
2022-07-27T15:21:33.056Z,98377.28
2022-07-27T15:26:35.696Z,98373.16
2022-07-27T15:31:37.628Z,98371.25
2022-07-27T15:36:44.902Z,98348.50
2022-07-27T15:41:47.876Z,98375.25
2022-07-27T15:46:49.730Z,98370.19
2022-07-27T15:51:52.636Z,98368.63
2022-07-27T15:56:54.596Z,98368.53
2022-07-27T16:01:56.497Z,98366.09
2022-07-27T16:06:59.874Z,98362.66
2022-07-27T16:12:01.693Z,98364.63
2022-07-27T16:17:03.556Z,98360.31
2022-07-27T16:22:05.448Z,98364.41
2022-07-27T16:27:07.851Z,98346.91
2022-07-27T16:32:09.735Z,98348.91
2022-07-27T16:37:11.634Z,98347.38
2022-07-27T16:42:13.535Z,98348.03
2022-07-27T16:47:15.402Z,98339.38
2022-07-27T16:52:17.232Z,98340.94
2022-07-27T16:57:19.120Z,98339.16
2022-07-27T17:02:21.461Z,98352.22
2022-07-27T17:07:23.582Z,98345.66
2022-07-27T17:12:25.435Z,98343.25
2022-07-27T17:17:28.161Z,98351.91
2022-07-27T17:22:30.040Z,98347.56
2022-07-27T17:27:31.894Z,98338.25
2022-07-27T17:32:34.116Z,98339.50
2022-07-27T17:38:03.495Z,98342.03
2022-07-27T17:42:57.976Z,98344.47
2022-07-27T17:47:59.824Z,98335.50
2022-07-27T17:53:01.812Z,98342.91
2022-07-27T17:58:03.981Z,98350.88
2022-07-27T18:03:05.871Z,98349.47
2022-07-27T18:08:12.069Z,98345.59
2022-07-27T18:13:14.077Z,98352.78
2022-07-27T18:18:27.549Z,98344.25
2022-07-27T18:23:30.877Z,98364.34
2022-07-27T18:28:39.197Z,98349.59
2022-07-27T18:33:45.941Z,98354.56
2022-07-27T18:38:49.736Z,98361.09
2022-07-27T18:43:56.037Z,98363.50
2022-07-27T18:48:58.488Z,98366.91
2022-07-27T18:54:00.537Z,98376.28
2022-07-27T18:59:02.492Z,98370.50
2022-07-27T19:04:05.234Z,98377.00
2022-07-27T19:09:07.419Z,98400.53
2022-07-27T19:14:09.253Z,98421.97
2022-07-27T19:19:15.750Z,98429.38
2022-07-27T19:24:19.936Z,98439.91
2022-07-27T19:29:22.891Z,98445.78
2022-07-27T19:34:24.903Z,98440.50
2022-07-27T19:39:26.815Z,98446.56
2022-07-27T19:44:29.145Z,98444.81
2022-07-27T19:49:31.745Z,98455.31
2022-07-27T20:00:01.108Z,98460.81
2022-07-27T20:05:03.252Z,98461.44
2022-07-27T20:10:06.197Z,98465.63
2022-07-27T20:15:08.551Z,98467.81
2022-07-27T20:20:11.271Z,98464.06
2022-07-27T20:25:15.000Z,98465.78
2022-07-27T20:30:18.771Z,98465.06
2022-07-27T20:35:20.719Z,98477.84
2022-07-27T20:40:27.149Z,98471.44
2022-07-27T20:45:29.232Z,98480.53
2022-07-27T20:50:31.116Z,98476.25
2022-07-27T20:55:32.996Z,98480.66
2022-07-27T21:00:35.120Z,98481.22
2022-07-27T21:05:36.990Z,98483.81
2022-07-27T21:10:38.953Z,98483.66
2022-07-27T21:15:40.853Z,98500.25
2022-07-27T21:20:42.768Z,98512.84
2022-07-27T21:25:44.617Z,98508.19
2022-07-27T21:30:46.467Z,98501.19
2022-07-27T21:35:48.340Z,98501.22
2022-07-27T21:40:50.195Z,98502.19
2022-07-27T21:45:52.204Z,98493.72
2022-07-27T21:50:54.115Z,98499.38
2022-07-27T21:55:56.010Z,98510.00
2022-07-27T22:00:57.987Z,98515.22
2022-07-27T22:05:59.874Z,98518.41
2022-07-27T22:11:02.630Z,98518.59
2022-07-27T22:16:05.190Z,98526.09
2022-07-27T22:21:07.176Z,98537.53
2022-07-27T22:26:09.759Z,98540.75
2022-07-27T22:31:21.331Z,98534.16
2022-07-27T22:36:25.043Z,98544.00
2022-07-27T22:41:26.921Z,98545.59
2022-07-27T22:46:32.500Z,98535.38
2022-07-27T22:51:49.490Z,98547.94
2022-07-27T22:56:54.648Z,98555.81
2022-07-27T23:01:56.857Z,98553.47
2022-07-27T23:06:59.345Z,98556.63
2022-07-27T23:12:01.217Z,98558.97
2022-07-27T23:17:03.074Z,98555.81
2022-07-27T23:22:05.018Z,98546.41
2022-07-27T23:27:12.692Z,98548.00
2022-07-27T23:32:14.514Z,98562.09
2022-07-27T23:37:16.436Z,98561.31
2022-07-27T23:42:18.282Z,98556.59
2022-07-27T23:47:20.160Z,98548.38
2022-07-27T23:52:22.010Z,98549.56
2022-07-27T23:57:23.907Z,98552.69
